Time;durP1;ratioP1;P1;durP2;ratioP2;P2;SDS_P1;SDS_P2;PMS_P1;PMS_P2;Temp;Humidity;BMP_temperature;BMP_pressure;BME280_temperature;BME280_humidity;BME280_pressure;Samples;Min_cycle;Max_cycle;Signal;HPM_P1;HPM_P2
2023/10/21 00:01:20;;;;;;;;;;;12.00;99.90;;;;;;5094085;28;19923;-32
2023/10/21 00:03:47;;;;;;;;;;;12.00;99.90;;;;;;5095048;28;19945;-33
2023/10/21 00:06:13;;;;;;;;;;;11.90;99.90;;;;;;5113176;28;20388;-32
2023/10/21 00:08:40;;;;;;;;;;;12.00;99.90;;;;;;5094398;28;20001;-32
2023/10/21 00:11:08;;;;;;;;;;;11.90;99.90;;;;;;5092586;28;20023;-33
2023/10/21 00:13:35;;;;;;;;;;;11.90;99.90;;;;;;5092672;28;19972;-32
2023/10/21 00:16:04;;;;;;;;;;;11.90;99.90;;;;;;5095467;28;19962;-32
2023/10/21 00:18:30;;;;;;;;;;;11.80;99.90;;;;;;5094230;28;19981;-34
2023/10/21 00:20:57;;;;;;;;;;;11.80;99.90;;;;;;5094935;28;19932;-32
2023/10/21 00:23:23;;;;;;;;;;;11.80;99.90;;;;;;5095005;28;19940;-36
2023/10/21 00:25:50;;;;;;;;;;;11.90;99.90;;;;;;5112671;28;19942;-32
2023/10/21 00:28:17;;;;;;;;;;;11.80;99.90;;;;;;5094162;28;20018;-33
2023/10/21 00:30:45;;;;;;;;;;;11.80;99.90;;;;;;5094140;28;19942;-32
2023/10/21 00:33:14;;;;;;;;;;;11.80;99.90;;;;;;5094314;28;19989;-32
2023/10/21 00:35:43;;;;;;;;;;;11.80;99.90;;;;;;5112781;28;20287;-33
2023/10/21 00:38:10;;;;;;;;;;;11.80;99.90;;;;;;5093718;28;20032;-33
2023/10/21 00:40:37;;;;;;;;;;;11.70;99.90;;;;;;5094199;28;20505;-32
2023/10/21 00:43:04;;;;;;;;;;;11.70;99.90;;;;;;5094949;28;19962;-32
2023/10/21 00:45:31;;;;;;;;;;;11.70;99.90;;;;;;5094387;28;19924;-32
2023/10/21 00:47:57;;;;;;;;;;;11.70;99.90;;;;;;5111531;28;19927;-33
2023/10/21 00:50:25;;;;;;;;;;;11.70;99.90;;;;;;5094681;28;19962;-32
2023/10/21 00:52:52;;;;;;;;;;;11.70;99.90;;;;;;5112541;28;19977;-33
2023/10/21 00:55:19;;;;;;;;;;;11.70;99.90;;;;;;5094672;28;20022;-32
2023/10/21 00:57:45;;;;;;;;;;;11.60;99.90;;;;;;5094489;28;20322;-33
2023/10/21 01:00:12;;;;;;;;;;;11.60;99.90;;;;;;5092924;28;19976;-33
2023/10/21 01:02:38;;;;;;;;;;;11.60;99.90;;;;;;5094713;28;20303;-32
2023/10/21 01:05:06;;;;;;;;;;;11.60;99.90;;;;;;5094501;28;20419;-33
2023/10/21 01:07:34;;;;;;;;;;;11.50;99.90;;;;;;5112299;28;19965;-32
2023/10/21 01:10:03;;;;;;;;;;;11.60;99.90;;;;;;5093723;28;19966;-32
2023/10/21 01:12:30;;;;;;;;;;;11.60;99.90;;;;;;5112117;28;20002;-32
2023/10/21 01:14:59;;;;;;;;;;;11.50;99.90;;;;;;5094826;28;19973;-33
2023/10/21 01:17:26;;;;;;;;;;;11.50;99.90;;;;;;5094271;28;20345;-33
2023/10/21 01:19:52;;;;;;;;;;;11.40;99.90;;;;;;5085213;28;19993;-33
2023/10/21 01:22:19;;;;;;;;;;;11.40;99.90;;;;;;5111514;28;20003;-33
2023/10/21 01:24:47;;;;;;;;;;;11.40;99.90;;;;;;5110798;28;19930;-33
2023/10/21 01:27:14;;;;;;;;;;;11.40;99.90;;;;;;5096720;28;19940;-32
2023/10/21 01:29:40;;;;;;;;;;;11.40;99.90;;;;;;5093248;28;19965;-32
2023/10/21 01:32:07;;;;;;;;;;;11.30;99.90;;;;;;5112203;28;19924;-33
2023/10/21 01:34:34;;;;;;;;;;;11.40;99.90;;;;;;5094057;28;19924;-32
2023/10/21 01:37:00;;;;;;;;;;;11.30;99.90;;;;;;5094093;28;20003;-32
2023/10/21 01:39:27;;;;;;;;;;;11.40;99.90;;;;;;5111669;28;19960;-32
2023/10/21 01:41:55;;;;;;;;;;;11.30;99.90;;;;;;5094299;28;19987;-34
2023/10/21 01:44:22;;;;;;;;;;;11.30;99.90;;;;;;5112484;28;19942;-32
2023/10/21 01:46:48;;;;;;;;;;;11.30;99.90;;;;;;5093727;28;19962;-33
2023/10/21 01:49:15;;;;;;;;;;;11.30;99.90;;;;;;5111251;28;19928;-33
2023/10/21 01:51:41;;;;;;;;;;;11.30;99.90;;;;;;5092068;28;19923;-33
2023/10/21 01:54:08;;;;;;;;;;;11.30;99.90;;;;;;5111982;28;19966;-32
2023/10/21 01:56:35;;;;;;;;;;;11.30;99.90;;;;;;5113227;28;20386;-34
2023/10/21 01:59:03;;;;;;;;;;;11.30;99.90;;;;;;5097968;28;19975;-33
2023/10/21 02:01:29;;;;;;;;;;;11.30;99.90;;;;;;5096593;28;20011;-33
2023/10/21 02:03:56;;;;;;;;;;;11.20;99.90;;;;;;5097523;28;19938;-33
2023/10/21 02:06:23;;;;;;;;;;;11.20;99.90;;;;;;5097027;28;19958;-32
2023/10/21 02:08:49;;;;;;;;;;;11.20;99.90;;;;;;5096007;28;20007;-34
2023/10/21 02:11:20;;;;;;;;;;;11.20;99.90;;;;;;5094654;28;19936;-32
2023/10/21 02:13:47;;;;;;;;;;;11.20;99.90;;;;;;5114446;28;19938;-32
2023/10/21 02:16:15;;;;;;;;;;;11.20;99.90;;;;;;5097218;28;20033;-36
2023/10/21 02:18:41;;;;;;;;;;;11.20;99.90;;;;;;5080701;28;19940;-34
2023/10/21 02:21:08;;;;;;;;;;;11.20;99.90;;;;;;5095662;28;19928;-33
2023/10/21 02:23:35;;;;;;;;;;;11.20;99.90;;;;;;5097299;28;20302;-34
2023/10/21 02:26:01;;;;;;;;;;;11.10;99.90;;;;;;5097298;28;19931;-34
2023/10/21 02:28:28;;;;;;;;;;;11.10;99.90;;;;;;5112384;28;19928;-32
2023/10/21 02:30:55;;;;;;;;;;;11.10;99.90;;;;;;5094911;28;20015;-33
2023/10/21 02:33:23;;;;;;;;;;;11.10;99.90;;;;;;5114832;28;19966;-33
2023/10/21 02:35:51;;;;;;;;;;;11.00;99.90;;;;;;5112920;27;20352;-33
2023/10/21 02:38:18;;;;;;;;;;;11.00;99.90;;;;;;5096200;28;19966;-32
2023/10/21 02:40:44;;;;;;;;;;;11.00;99.90;;;;;;5114133;28;20473;-32
2023/10/21 02:43:11;;;;;;;;;;;11.00;99.90;;;;;;5114775;28;19985;-32
2023/10/21 02:45:38;;;;;;;;;;;10.90;99.90;;;;;;5096830;28;20303;-33
2023/10/21 02:48:05;;;;;;;;;;;10.90;99.90;;;;;;5094658;28;19947;-32
2023/10/21 02:50:32;;;;;;;;;;;10.90;99.90;;;;;;5096648;28;20418;-33
2023/10/21 02:52:59;;;;;;;;;;;10.80;99.90;;;;;;5096365;28;19940;-32
2023/10/21 02:55:26;;;;;;;;;;;10.90;99.90;;;;;;5096655;28;19938;-34
2023/10/21 02:57:52;;;;;;;;;;;10.80;99.90;;;;;;5087538;28;20009;-34
2023/10/21 03:00:21;;;;;;;;;;;10.80;99.90;;;;;;5095022;28;19954;-33
2023/10/21 03:02:48;;;;;;;;;;;10.80;99.90;;;;;;5081917;28;19966;-32
2023/10/21 03:05:15;;;;;;;;;;;10.80;99.90;;;;;;5096136;28;19941;-32
2023/10/21 03:07:43;;;;;;;;;;;10.80;99.90;;;;;;5094667;28;19964;-32
2023/10/21 03:10:10;;;;;;;;;;;10.80;99.90;;;;;;5096319;28;19963;-33
2023/10/21 03:12:37;;;;;;;;;;;10.80;99.90;;;;;;5096227;28;19930;-32
2023/10/21 03:15:06;;;;;;;;;;;10.80;99.90;;;;;;5114323;28;19934;-31
2023/10/21 03:17:33;;;;;;;;;;;10.70;99.90;;;;;;5113240;28;20356;-32
2023/10/21 03:19:59;;;;;;;;;;;10.70;99.90;;;;;;5095962;28;20023;-32
2023/10/21 03:22:26;;;;;;;;;;;10.70;99.90;;;;;;5113961;28;19943;-33
2023/10/21 03:24:54;;;;;;;;;;;10.70;99.90;;;;;;5096335;28;19940;-32
2023/10/21 03:27:21;;;;;;;;;;;10.70;99.90;;;;;;5095001;28;19974;-33
2023/10/21 03:29:48;;;;;;;;;;;10.70;99.90;;;;;;5095347;28;19972;-32
2023/10/21 03:32:14;;;;;;;;;;;10.60;99.90;;;;;;5095829;28;19962;-32
2023/10/21 03:34:41;;;;;;;;;;;10.60;99.90;;;;;;5113638;28;19945;-32
2023/10/21 03:37:08;;;;;;;;;;;10.60;99.90;;;;;;5095039;28;20390;-33
2023/10/21 03:39:34;;;;;;;;;;;10.60;99.90;;;;;;5113633;28;20453;-32
2023/10/21 03:42:02;;;;;;;;;;;10.60;99.90;;;;;;5094715;28;19958;-32
2023/10/21 03:44:29;;;;;;;;;;;10.50;99.90;;;;;;5089944;28;20401;-33
2023/10/21 03:46:56;;;;;;;;;;;10.50;99.90;;;;;;5093680;28;20014;-34
2023/10/21 03:49:22;;;;;;;;;;;10.50;99.90;;;;;;5095534;28;19968;-33
2023/10/21 03:51:49;;;;;;;;;;;10.50;99.90;;;;;;5095248;28;20009;-33
2023/10/21 03:54:15;;;;;;;;;;;10.50;99.90;;;;;;5095895;28;20439;-32
2023/10/21 03:56:42;;;;;;;;;;;10.50;99.90;;;;;;5110614;28;19991;-34
2023/10/21 03:59:10;;;;;;;;;;;10.40;99.90;;;;;;5092576;28;19952;-33
2023/10/21 04:01:37;;;;;;;;;;;10.40;99.90;;;;;;5093999;28;19976;-32
2023/10/21 04:04:03;;;;;;;;;;;10.40;99.90;;;;;;5113239;28;20020;-32
2023/10/21 04:06:30;;;;;;;;;;;10.30;99.90;;;;;;5111167;28;19923;-32
2023/10/21 04:08:57;;;;;;;;;;;10.30;99.90;;;;;;5111218;28;19923;-34
2023/10/21 04:11:23;;;;;;;;;;;10.20;99.90;;;;;;5090772;28;19973;-33
2023/10/21 04:13:50;;;;;;;;;;;10.30;99.90;;;;;;5094579;28;20372;-33
2023/10/21 04:16:18;;;;;;;;;;;10.20;99.90;;;;;;5112202;28;19982;-33
2023/10/21 04:18:45;;;;;;;;;;;10.20;99.90;;;;;;5093300;28;19928;-33
2023/10/21 04:21:12;;;;;;;;;;;10.20;99.90;;;;;;5112752;28;19924;-34
2023/10/21 04:23:38;;;;;;;;;;;10.20;99.90;;;;;;5095068;28;20468;-32
2023/10/21 04:26:05;;;;;;;;;;;10.20;99.90;;;;;;5112722;28;20341;-32
2023/10/21 04:28:32;;;;;;;;;;;10.10;99.90;;;;;;5093601;28;19958;-32
2023/10/21 04:30:58;;;;;;;;;;;10.10;99.90;;;;;;5094505;28;19967;-32
2023/10/21 04:33:26;;;;;;;;;;;10.10;99.90;;;;;;5112726;28;19969;-32
2023/10/21 04:35:53;;;;;;;;;;;10.10;99.90;;;;;;5095181;28;20335;-32
2023/10/21 04:38:19;;;;;;;;;;;10.20;99.90;;;;;;5111965;28;20007;-35
2023/10/21 04:40:46;;;;;;;;;;;10.20;99.90;;;;;;5094743;28;20062;-32
2023/10/21 04:43:13;;;;;;;;;;;10.10;99.90;;;;;;5094220;28;19923;-32
2023/10/21 04:45:39;;;;;;;;;;;10.20;99.90;;;;;;5093479;28;19941;-33
2023/10/21 04:48:07;;;;;;;;;;;10.20;99.90;;;;;;5111607;28;20288;-32
2023/10/21 04:50:35;;;;;;;;;;;10.20;99.90;;;;;;5112737;28;19928;-33
2023/10/21 04:53:01;;;;;;;;;;;10.20;99.90;;;;;;5095019;28;19945;-32
2023/10/21 04:55:28;;;;;;;;;;;10.20;99.90;;;;;;5094682;28;19988;-33
2023/10/21 04:57:55;;;;;;;;;;;10.30;99.90;;;;;;5093609;28;19985;-34
2023/10/21 05:00:21;;;;;;;;;;;10.20;99.90;;;;;;5091474;28;21517;-32
2023/10/21 05:02:48;;;;;;;;;;;10.20;99.90;;;;;;5094481;28;19944;-33
2023/10/21 05:05:15;;;;;;;;;;;10.20;99.90;;;;;;5111867;28;19985;-32
2023/10/21 05:07:43;;;;;;;;;;;10.20;99.90;;;;;;5094831;28;19964;-34
2023/10/21 05:10:09;;;;;;;;;;;10.30;99.90;;;;;;5092873;28;20012;-33
2023/10/21 05:12:36;;;;;;;;;;;10.20;99.90;;;;;;5093993;28;19923;-33
2023/10/21 05:15:03;;;;;;;;;;;10.20;99.90;;;;;;5094404;28;19924;-32
2023/10/21 05:17:29;;;;;;;;;;;10.20;99.90;;;;;;5111573;28;20448;-32
2023/10/21 05:19:57;;;;;;;;;;;10.30;99.90;;;;;;5111328;28;19924;-33
2023/10/21 05:22:23;;;;;;;;;;;10.30;99.90;;;;;;5094406;28;19928;-32
2023/10/21 05:24:51;;;;;;;;;;;10.30;99.90;;;;;;5094476;28;19931;-34
2023/10/21 05:27:18;;;;;;;;;;;10.30;99.90;;;;;;5093856;28;19971;-32
2023/10/21 05:29:44;;;;;;;;;;;10.30;99.90;;;;;;5094101;28;20428;-32
2023/10/21 05:32:11;;;;;;;;;;;10.30;99.90;;;;;;5096492;28;19959;-32
2023/10/21 05:34:39;;;;;;;;;;;10.30;99.90;;;;;;5115533;28;19976;-33
2023/10/21 05:37:05;;;;;;;;;;;10.40;99.90;;;;;;5116252;28;20390;-32
2023/10/21 05:39:32;;;;;;;;;;;10.40;99.90;;;;;;5112895;28;20056;-33
2023/10/21 05:41:59;;;;;;;;;;;10.40;99.90;;;;;;5097736;28;20403;-32
2023/10/21 05:44:26;;;;;;;;;;;10.40;99.90;;;;;;5096570;28;19934;-33
2023/10/21 05:46:53;;;;;;;;;;;10.40;99.90;;;;;;5095839;28;19980;-33
2023/10/21 05:49:19;;;;;;;;;;;10.50;99.90;;;;;;5095635;28;19928;-34
2023/10/21 05:51:46;;;;;;;;;;;10.50;99.90;;;;;;5094613;28;19957;-32
2023/10/21 05:54:13;;;;;;;;;;;10.50;99.90;;;;;;5091177;28;20345;-32
2023/10/21 05:56:39;;;;;;;;;;;10.60;99.90;;;;;;5113950;28;19931;-33
2023/10/21 05:59:07;;;;;;;;;;;10.60;99.90;;;;;;5095105;28;19961;-33
2023/10/21 06:01:34;;;;;;;;;;;10.60;99.90;;;;;;5113027;28;20024;-32
2023/10/21 06:04:00;;;;;;;;;;;10.60;99.90;;;;;;5105521;28;20364;-32
2023/10/21 06:06:27;;;;;;;;;;;10.70;99.90;;;;;;5094135;28;19971;-32
2023/10/21 06:08:54;;;;;;;;;;;10.70;99.90;;;;;;5093102;28;19928;-32
2023/10/21 06:11:20;;;;;;;;;;;10.70;99.90;;;;;;5094893;28;19924;-32
2023/10/21 06:13:47;;;;;;;;;;;10.70;99.90;;;;;;5113876;28;20374;-32
2023/10/21 06:16:15;;;;;;;;;;;10.70;99.90;;;;;;5092295;28;19969;-34
2023/10/21 06:18:41;;;;;;;;;;;10.80;99.90;;;;;;5091831;28;19924;-33
2023/10/21 06:21:08;;;;;;;;;;;10.80;99.90;;;;;;5096531;28;19963;-32
2023/10/21 06:23:35;;;;;;;;;;;10.80;99.90;;;;;;5114168;28;19924;-32
2023/10/21 06:26:02;;;;;;;;;;;10.80;99.90;;;;;;5110519;28;19958;-34
2023/10/21 06:28:29;;;;;;;;;;;10.80;99.90;;;;;;5095819;28;19942;-33
2023/10/21 06:30:55;;;;;;;;;;;10.80;99.90;;;;;;5094208;28;19924;-31
2023/10/21 06:33:23;;;;;;;;;;;10.90;99.90;;;;;;5093788;28;19992;-33
2023/10/21 06:35:50;;;;;;;;;;;10.90;99.90;;;;;;5094151;28;19990;-33
2023/10/21 06:38:16;;;;;;;;;;;11.00;99.90;;;;;;5091090;28;19928;-32
2023/10/21 06:40:44;;;;;;;;;;;11.00;99.90;;;;;;5086969;28;20043;-33
2023/10/21 06:43:11;;;;;;;;;;;11.10;99.90;;;;;;5109077;28;19924;-34
2023/10/21 06:45:38;;;;;;;;;;;11.10;99.90;;;;;;5094322;28;19977;-33
2023/10/21 06:48:05;;;;;;;;;;;11.20;99.90;;;;;;5107051;28;20343;-33
2023/10/21 06:50:35;;;;;;;;;;;11.20;99.90;;;;;;5088618;28;20383;-33
2023/10/21 06:53:01;;;;;;;;;;;11.30;99.90;;;;;;5113234;28;20353;-32
2023/10/21 06:55:28;;;;;;;;;;;11.30;99.90;;;;;;5095040;28;19987;-33
2023/10/21 06:57:55;;;;;;;;;;;11.40;99.90;;;;;;5095146;28;20005;-32
2023/10/21 07:00:21;;;;;;;;;;;11.40;99.90;;;;;;5113805;28;19991;-33
2023/10/21 07:02:48;;;;;;;;;;;11.50;99.90;;;;;;5112690;28;19969;-33
2023/10/21 07:05:15;;;;;;;;;;;11.50;99.90;;;;;;5090552;28;19924;-33
2023/10/21 07:07:43;;;;;;;;;;;11.50;99.90;;;;;;5089801;28;19930;-33
2023/10/21 07:10:10;;;;;;;;;;;11.60;99.90;;;;;;5099464;28;19936;-33
2023/10/21 07:12:38;;;;;;;;;;;11.60;99.90;;;;;;5107836;28;19939;-32
2023/10/21 07:15:05;;;;;;;;;;;11.70;99.90;;;;;;5091459;28;20282;-33
2023/10/21 07:17:32;;;;;;;;;;;11.70;99.90;;;;;;5095913;28;19924;-33
2023/10/21 07:19:59;;;;;;;;;;;11.80;99.90;;;;;;5095969;28;20149;-33
2023/10/21 07:22:25;;;;;;;;;;;11.80;99.90;;;;;;5110004;28;19924;-33
2023/10/21 07:24:56;;;;;;;;;;;11.80;99.90;;;;;;5084777;28;20373;-32
2023/10/21 07:27:22;;;;;;;;;;;11.90;99.90;;;;;;5094372;28;19964;-33
2023/10/21 07:29:49;;;;;;;;;;;11.90;99.90;;;;;;5095853;28;19928;-33
2023/10/21 07:32:16;;;;;;;;;;;12.00;99.90;;;;;;5095904;28;19923;-35
2023/10/21 07:34:43;;;;;;;;;;;12.00;99.90;;;;;;5096047;28;19945;-32
2023/10/21 07:37:09;;;;;;;;;;;12.00;99.90;;;;;;5094814;28;19929;-33
2023/10/21 07:39:36;;;;;;;;;;;12.00;99.90;;;;;;5095889;28;19988;-36
2023/10/21 07:42:04;;;;;;;;;;;12.10;99.90;;;;;;5095308;28;19958;-33
2023/10/21 07:44:31;;;;;;;;;;;12.10;99.90;;;;;;5094932;28;19927;-33
2023/10/21 07:46:57;;;;;;;;;;;12.20;99.90;;;;;;5112163;28;19981;-32
2023/10/21 07:49:24;;;;;;;;;;;12.20;99.90;;;;;;5094650;28;19927;-33
2023/10/21 07:51:51;;;;;;;;;;;12.30;99.90;;;;;;5093082;28;19945;-34
2023/10/21 07:54:17;;;;;;;;;;;12.30;99.90;;;;;;5085807;28;20379;-33
2023/10/21 07:56:45;;;;;;;;;;;12.40;99.90;;;;;;5093931;28;19957;-33
2023/10/21 07:59:13;;;;;;;;;;;12.50;99.90;;;;;;5095953;28;19924;-35
2023/10/21 08:01:40;;;;;;;;;;;12.50;99.90;;;;;;5093234;28;20057;-33
2023/10/21 08:04:09;;;;;;;;;;;12.70;99.90;;;;;;5112736;28;19927;-33
2023/10/21 08:06:36;;;;;;;;;;;12.70;99.90;;;;;;5093315;28;20046;-34
2023/10/21 08:09:04;;;;;;;;;;;12.80;99.90;;;;;;5091259;28;19977;-33
2023/10/21 08:11:31;;;;;;;;;;;12.80;99.90;;;;;;5093546;28;19923;-33
2023/10/21 08:13:57;;;;;;;;;;;12.90;99.90;;;;;;5093635;28;19930;-32
2023/10/21 08:16:25;;;;;;;;;;;13.00;99.90;;;;;;5110880;28;19982;-32
2023/10/21 08:18:52;;;;;;;;;;;13.00;99.90;;;;;;5091049;28;19958;-32
2023/10/21 08:21:19;;;;;;;;;;;13.10;99.90;;;;;;5095148;28;19962;-32
2023/10/21 08:23:45;;;;;;;;;;;13.20;99.90;;;;;;5092287;28;19923;-32
2023/10/21 08:26:12;;;;;;;;;;;13.30;99.90;;;;;;5104261;28;20350;-32
2023/10/21 08:28:39;;;;;;;;;;;13.40;99.90;;;;;;5084695;28;20000;-32
2023/10/21 08:31:08;;;;;;;;;;;13.50;99.90;;;;;;5094711;28;19924;-33
2023/10/21 08:33:36;;;;;;;;;;;13.60;99.90;;;;;;5094990;28;19934;-33
2023/10/21 08:36:02;;;;;;;;;;;13.70;99.90;;;;;;5112919;28;19924;-33
2023/10/21 08:38:29;;;;;;;;;;;13.80;99.90;;;;;;5094982;28;20308;-32
2023/10/21 08:40:56;;;;;;;;;;;13.90;99.90;;;;;;5094768;28;19953;-34
2023/10/21 08:43:22;;;;;;;;;;;13.90;99.90;;;;;;5094737;28;19977;-33
2023/10/21 08:45:49;;;;;;;;;;;14.00;99.90;;;;;;5112090;28;19945;-34
2023/10/21 08:48:16;;;;;;;;;;;14.10;99.90;;;;;;5112446;28;19962;-32
2023/10/21 08:50:48;;;;;;;;;;;14.10;99.90;;;;;;5112737;28;19924;-33
2023/10/21 08:53:15;;;;;;;;;;;14.20;99.90;;;;;;5094429;28;19923;-32
2023/10/21 08:55:41;;;;;;;;;;;14.30;99.90;;;;;;5079575;28;19953;-32
2023/10/21 08:58:08;;;;;;;;;;;14.30;99.90;;;;;;5088703;28;20372;-33
2023/10/21 09:00:35;;;;;;;;;;;14.40;99.90;;;;;;5091772;28;19924;-33
2023/10/21 09:03:03;;;;;;;;;;;14.50;99.90;;;;;;5112049;28;19958;-33
2023/10/21 09:05:30;;;;;;;;;;;14.50;99.90;;;;;;5091251;28;19942;-32
2023/10/21 09:07:58;;;;;;;;;;;14.50;99.90;;;;;;5097730;28;20051;-33
2023/10/21 09:10:24;;;;;;;;;;;14.40;99.90;;;;;;5097012;28;19984;-32
2023/10/21 09:12:51;;;;;;;;;;;14.40;99.90;;;;;;5114966;28;19949;-32
2023/10/21 09:15:18;;;;;;;;;;;14.40;99.90;;;;;;5097798;28;19985;-33
2023/10/21 09:17:45;;;;;;;;;;;14.40;99.90;;;;;;5097130;28;19923;-32
2023/10/21 09:20:13;;;;;;;;;;;14.40;99.90;;;;;;5115564;28;20404;-32
2023/10/21 09:22:39;;;;;;;;;;;14.40;99.90;;;;;;5109919;28;19939;-32
2023/10/21 09:25:14;;;;;;;;;;;14.40;99.90;;;;;;5097631;28;19938;-32
2023/10/21 09:27:41;;;;;;;;;;;14.40;99.90;;;;;;5107337;28;19976;-32
2023/10/21 09:30:09;;;;;;;;;;;14.40;99.90;;;;;;5092009;28;19935;-34
2023/10/21 09:32:35;;;;;;;;;;;14.40;99.90;;;;;;5101361;28;20004;-32
2023/10/21 09:35:13;;;;;;;;;;;14.40;99.90;;;;;;5097233;28;19977;-32
2023/10/21 09:37:39;;;;;;;;;;;14.30;99.90;;;;;;5116257;28;20009;-32
2023/10/21 09:40:07;;;;;;;;;;;14.30;99.90;;;;;;5097988;28;19924;-33
2023/10/21 09:42:35;;;;;;;;;;;14.30;99.90;;;;;;5097928;28;19936;-32
2023/10/21 09:45:03;;;;;;;;;;;14.30;99.90;;;;;;5116238;28;19962;-35
2023/10/21 09:47:30;;;;;;;;;;;14.30;99.90;;;;;;5126318;27;19928;-33
2023/10/21 09:49:57;;;;;;;;;;;14.30;99.90;;;;;;5115929;28;19938;-32
2023/10/21 09:52:25;;;;;;;;;;;14.30;99.90;;;;;;5096891;28;19931;-33
2023/10/21 09:54:52;;;;;;;;;;;14.20;99.90;;;;;;5097647;28;19962;-33
2023/10/21 09:57:19;;;;;;;;;;;14.20;99.90;;;;;;5116102;28;19987;-32
2023/10/21 09:59:47;;;;;;;;;;;14.20;99.90;;;;;;5096962;28;20003;-32
2023/10/21 10:02:14;;;;;;;;;;;14.10;99.90;;;;;;5096762;28;20023;-33
2023/10/21 10:04:40;;;;;;;;;;;14.20;99.90;;;;;;5099733;28;19985;-32
2023/10/21 10:07:07;;;;;;;;;;;14.10;99.90;;;;;;5097467;28;19980;-32
2023/10/21 10:09:34;;;;;;;;;;;14.10;99.90;;;;;;5116353;27;19995;-33
2023/10/21 10:12:01;;;;;;;;;;;14.20;99.90;;;;;;5096599;28;19958;-32
2023/10/21 10:14:28;;;;;;;;;;;14.20;99.90;;;;;;5098453;27;19979;-32
2023/10/21 10:16:56;;;;;;;;;;;14.20;99.90;;;;;;5096275;28;19924;-32
2023/10/21 10:19:36;;;;;;;;;;;14.20;99.90;;;;;;5115136;27;19993;-32
2023/10/21 10:22:09;;;;;;;;;;;14.20;99.90;;;;;;5113598;27;21273;-32
2023/10/21 10:24:36;;;;;;;;;;;14.10;99.90;;;;;;5102783;28;20368;-32
2023/10/21 10:27:05;;;;;;;;;;;14.10;99.90;;;;;;5107610;27;19932;-33
2023/10/21 10:29:32;;;;;;;;;;;14.10;99.90;;;;;;5093841;28;19940;-33
2023/10/21 10:32:15;;;;;;;;;;;14.10;99.90;;;;;;5095822;28;19958;-33
2023/10/21 10:34:49;;;;;;;;;;;14.10;99.90;;;;;;5113407;28;19949;-33
2023/10/21 10:37:24;;;;;;;;;;;14.10;99.90;;;;;;5093383;28;20414;-33
2023/10/21 10:39:50;;;;;;;;;;;14.10;99.90;;;;;;5113560;28;19981;-32
2023/10/21 10:42:17;;;;;;;;;;;14.10;99.90;;;;;;5092774;28;19994;-33
2023/10/21 10:44:44;;;;;;;;;;;14.10;99.90;;;;;;5095616;28;19924;-33
2023/10/21 10:47:10;;;;;;;;;;;14.10;99.90;;;;;;5096353;28;19977;-33
2023/10/21 10:49:52;;;;;;;;;;;14.20;99.90;;;;;;5096440;28;19944;-33
2023/10/21 10:52:27;;;;;;;;;;;14.20;99.90;;;;;;5114604;28;19978;-33
2023/10/21 10:54:53;;;;;;;;;;;14.20;99.90;;;;;;5096542;28;20325;-34
2023/10/21 10:57:21;;;;;;;;;;;14.20;99.90;;;;;;5112322;28;19928;-33
2023/10/21 10:59:49;;;;;;;;;;;14.30;99.90;;;;;;5095435;28;19942;-33
2023/10/21 11:02:16;;;;;;;;;;;14.40;99.90;;;;;;5096353;28;20240;-32
2023/10/21 11:04:44;;;;;;;;;;;14.40;99.90;;;;;;5114017;28;20455;-32
2023/10/21 11:07:11;;;;;;;;;;;14.30;99.90;;;;;;5114556;28;19947;-33
2023/10/21 11:09:39;;;;;;;;;;;14.30;99.90;;;;;;5096126;28;19924;-32
2023/10/21 11:12:06;;;;;;;;;;;14.20;99.90;;;;;;5096475;28;20018;-33
2023/10/21 11:14:33;;;;;;;;;;;14.30;99.90;;;;;;5095945;28;19924;-32
2023/10/21 11:17:00;;;;;;;;;;;14.20;99.90;;;;;;5095340;28;19989;-34
2023/10/21 11:19:27;;;;;;;;;;;14.20;99.90;;;;;;5114225;28;19923;-32
2023/10/21 11:21:53;;;;;;;;;;;14.20;99.90;;;;;;5095921;28;19967;-33
2023/10/21 11:24:22;;;;;;;;;;;14.20;99.90;;;;;;5114167;28;19969;-33
2023/10/21 11:26:51;;;;;;;;;;;14.20;99.90;;;;;;5113888;28;19923;-34
2023/10/21 11:29:18;;;;;;;;;;;14.20;99.90;;;;;;5113691;28;19940;-33
2023/10/21 11:31:45;;;;;;;;;;;14.20;99.90;;;;;;5096018;28;19941;-32
2023/10/21 11:34:14;;;;;;;;;;;14.20;99.90;;;;;;5094465;28;20510;-33
2023/10/21 11:36:43;;;;;;;;;;;14.30;99.90;;;;;;5094131;28;20411;-33
2023/10/21 11:39:14;;;;;;;;;;;14.30;99.90;;;;;;5095303;28;19961;-33
2023/10/21 11:41:45;;;;;;;;;;;14.20;99.90;;;;;;5095446;28;20372;-33
2023/10/21 11:44:13;;;;;;;;;;;14.20;99.90;;;;;;5113537;28;19928;-33
2023/10/21 11:46:39;;;;;;;;;;;14.20;99.90;;;;;;5093584;28;20341;-34
2023/10/21 11:49:13;;;;;;;;;;;14.10;99.90;;;;;;5112883;28;20336;-33
2023/10/21 11:51:40;;;;;;;;;;;14.20;99.90;;;;;;5088318;28;19954;-34
2023/10/21 11:54:09;;;;;;;;;;;14.10;99.90;;;;;;5093807;28;19938;-33
2023/10/21 12:03:11;;;;;;;;;;;14.10;99.90;;;;;;5094093;28;19962;-33
2023/10/21 12:13:43;;;;;;;;;;;14.20;99.90;;;;;;5094547;28;19931;-33
2023/10/21 12:16:32;;;;;;;;;;;14.20;99.90;;;;;;5095219;28;19931;-33
2023/10/21 12:33:21;;;;;;;;;;;14.80;99.90;;;;;;5094462;28;19942;-32
2023/10/21 12:38:39;;;;;;;;;;;14.70;99.90;;;;;;5094074;28;19962;-33
2023/10/21 12:41:16;;;;;;;;;;;14.70;99.90;;;;;;5112636;28;19938;-33
2023/10/21 12:43:45;;;;;;;;;;;14.80;99.90;;;;;;5094825;28;20411;-32
2023/10/21 12:46:17;;;;;;;;;;;14.80;99.90;;;;;;5110193;28;20417;-33
2023/10/21 12:48:51;;;;;;;;;;;14.80;99.90;;;;;;5091688;28;20410;-33
2023/10/21 12:51:17;;;;;;;;;;;14.70;99.90;;;;;;5092524;28;19924;-32
2023/10/21 12:53:44;;;;;;;;;;;14.70;99.90;;;;;;5072122;28;20059;-32
2023/10/21 12:56:13;;;;;;;;;;;14.70;99.90;;;;;;5074579;28;19974;-32
2023/10/21 12:58:40;;;;;;;;;;;14.70;99.90;;;;;;5074517;28;19924;-33
2023/10/21 13:01:09;;;;;;;;;;;14.70;99.90;;;;;;5092416;28;20299;-33
2023/10/21 13:03:36;;;;;;;;;;;14.70;99.90;;;;;;5074258;28;19931;-33
2023/10/21 13:06:05;;;;;;;;;;;14.70;99.90;;;;;;5074356;28;20379;-32
2023/10/21 13:08:32;;;;;;;;;;;14.70;99.90;;;;;;5069728;28;20050;-32
2023/10/21 13:10:58;;;;;;;;;;;14.70;99.90;;;;;;5072115;28;20442;-31
2023/10/21 13:13:35;;;;;;;;;;;14.70;99.90;;;;;;5072133;28;19939;-34
2023/10/21 13:16:03;;;;;;;;;;;14.70;99.90;;;;;;5054332;28;19942;-32
2023/10/21 13:18:30;;;;;;;;;;;14.80;99.90;;;;;;5054009;28;19944;-33
2023/10/21 13:20:57;;;;;;;;;;;14.80;99.90;;;;;;5072196;28;19994;-32
2023/10/21 13:23:25;;;;;;;;;;;14.80;99.90;;;;;;5054267;28;20353;-33
2023/10/21 13:25:53;;;;;;;;;;;14.90;99.90;;;;;;5087817;28;19991;-33
2023/10/21 13:28:20;;;;;;;;;;;14.90;99.90;;;;;;5074114;28;19962;-32
2023/10/21 13:30:49;;;;;;;;;;;14.90;99.90;;;;;;5074233;28;20020;-33
2023/10/21 13:33:16;;;;;;;;;;;14.90;99.90;;;;;;5074114;28;20001;-33
2023/10/21 13:35:43;;;;;;;;;;;14.90;99.90;;;;;;5074144;28;20368;-32
2023/10/21 13:38:09;;;;;;;;;;;14.90;99.90;;;;;;5074112;28;19978;-34
2023/10/21 13:40:37;;;;;;;;;;;14.90;99.90;;;;;;5074088;28;19968;-34
2023/10/21 13:43:05;;;;;;;;;;;14.90;99.90;;;;;;5091187;28;19924;-34
2023/10/21 13:45:32;;;;;;;;;;;14.90;99.90;;;;;;5092023;28;20368;-32
2023/10/21 13:47:59;;;;;;;;;;;15.00;99.90;;;;;;5090704;28;20077;-32
2023/10/21 13:50:26;;;;;;;;;;;15.10;99.90;;;;;;5094143;28;19968;-34
2023/10/21 13:52:55;;;;;;;;;;;15.10;99.90;;;;;;5116063;28;20008;-32
2023/10/21 13:55:22;;;;;;;;;;;15.20;99.90;;;;;;5116054;28;19934;-33
2023/10/21 13:57:50;;;;;;;;;;;15.10;99.90;;;;;;5115890;28;19931;-33
2023/10/21 14:00:34;;;;;;;;;;;15.10;99.90;;;;;;5097634;28;19945;-32
2023/10/21 14:03:01;;;;;;;;;;;15.00;99.90;;;;;;5115072;28;19959;-33
2023/10/21 14:05:28;;;;;;;;;;;15.00;99.90;;;;;;5115688;28;20365;-31
2023/10/21 14:07:55;;;;;;;;;;;15.00;99.90;;;;;;5095906;28;19958;-32
2023/10/21 14:10:21;;;;;;;;;;;15.00;99.90;;;;;;5115065;28;19942;-32
2023/10/21 14:12:50;;;;;;;;;;;15.00;99.90;;;;;;5097611;28;19924;-32
2023/10/21 14:15:17;;;;;;;;;;;15.00;99.90;;;;;;5097433;28;19968;-34
2023/10/21 14:17:44;;;;;;;;;;;15.00;99.90;;;;;;5115503;28;19964;-33
2023/10/21 14:20:11;;;;;;;;;;;15.00;99.90;;;;;;5097627;28;19924;-33
2023/10/21 14:22:38;;;;;;;;;;;15.00;99.90;;;;;;5097198;28;19939;-33
2023/10/21 14:25:05;;;;;;;;;;;15.00;99.90;;;;;;5114465;28;20355;-33
2023/10/21 14:27:32;;;;;;;;;;;14.90;99.90;;;;;;5096654;28;19957;-32
2023/10/21 14:30:08;;;;;;;;;;;14.90;99.90;;;;;;5111603;28;19928;-32
2023/10/21 14:32:35;;;;;;;;;;;14.90;99.90;;;;;;5082166;28;20448;-33
2023/10/21 14:35:04;;;;;;;;;;;14.90;99.90;;;;;;5111953;28;19962;-32
2023/10/21 14:37:31;;;;;;;;;;;14.90;99.90;;;;;;5096514;28;19939;-33
2023/10/21 14:39:57;;;;;;;;;;;14.80;99.90;;;;;;5096844;28;19946;-32
2023/10/21 14:42:24;;;;;;;;;;;14.80;99.90;;;;;;5112866;28;20459;-32
2023/10/21 14:44:52;;;;;;;;;;;14.80;99.90;;;;;;5114712;28;19958;-32
2023/10/21 14:47:25;;;;;;;;;;;14.80;99.90;;;;;;5114609;28;20448;-32
2023/10/21 14:49:52;;;;;;;;;;;14.70;99.90;;;;;;5114803;28;19949;-33